Etusivu
METAR-TAF:

METAR-TAF

Lentoasemat :

Bagdadin kansainvälinen lentoasema

Bagdad, Irak

Leveyspiiri: 33-15-45N, Pituuspiiri: 44-14-04E, korkeus merenpinnasta: 35 m

Tämänhetkinen sää

Tämä raportti tehtiin 23 minuuttia sitten, kello 21.00 UTC
Tuuli 4 kn idästä/koillisesta
Lämpötila 34°C
Kosteus 26%
Ilmanpaine 1005 hPa
Näkyvyys 10 km tai enemmän
ei pilviä alle 1500 m:ssä eikä cumulonimbus-pilviä

METAR: ORBI 182100Z 07004KT CAVOK 34/12 Q1005 NOSIG

Aika: 00:23 (21:23 UTC)

Sääennuste

Tämä raportti tehtiin 5 tuntia ja 23 minuuttia sitten, kello 16.00 UTC
Ennuste voimassa 18. päivästä klo 18 UTC - 19. päivään klo 18 UTC
Tuuli 3 kn eri suunnista
Näkyvyys: 8000 m
Hajanaisia pilviä 3000 ft:n korkeudessa
Hajonneita pilviä 5000 ft:n korkeudessa

TAF: ORBI 181600Z 1818/1918 VRB03KT 8000 SCT030 BKN050

Säähavainnot ja -ennusteet yli 4000 lentoasemalta (METAR- ja TAF-raportit).

Käytössä olevat sääasemat on merkitty karttaan keltaisilla ja punaisilla pisteillä.

Aseta hiiri pisteen päälle nähdäksesi sääaseman nimen.

Klikkaa sitten nähdäksesi säähavainnot ja -ennusteet.

Kartan vaihtaminen: klikkaa mustalla rastilla varustettuja vihreitä pisteitä, niin voit zoomata sisään; viivalla varustettua vihreää pistettä, niin voit zoomata ulos tai vihreitä nuolia, niin pääset viereisille kartoille.


METAR-TAF: